Time;durP1;ratioP1;P1;durP2;ratioP2;P2;SDS_P1;SDS_P2;PMS_P1;PMS_P2;Temp;Humidity;BMP_temperature;BMP_pressure;BME280_temperature;BME280_humidity;BME280_pressure;Samples;Min_cycle;Max_cycle;Signal;HPM_P1;HPM_P2
2022/12/05 00:01:27;;;;;;;12.55;8.57;;;4.70;99.90;;;;;;5031159;28;20156;-85
2022/12/05 00:03:55;;;;;;;13.77;10.18;;;4.80;99.90;;;;;;5062602;28;20518;-85
2022/12/05 00:06:23;;;;;;;11.32;7.25;;;4.80;99.90;;;;;;5030759;28;20048;-85
2022/12/05 00:08:49;;;;;;;12.00;8.95;;;4.90;99.90;;;;;;5030139;28;20052;-86
2022/12/05 00:11:19;;;;;;;9.90;7.55;;;4.90;99.90;;;;;;5030926;28;20135;-86
2022/12/05 00:13:46;;;;;;;10.90;7.78;;;4.90;99.90;;;;;;5046360;28;20439;-86
2022/12/05 00:16:15;;;;;;;11.43;7.90;;;4.90;99.90;;;;;;5046620;28;20052;-85
2022/12/05 00:18:42;;;;;;;11.55;8.48;;;4.90;99.90;;;;;;5030279;28;20083;-85
2022/12/05 00:21:15;;;;;;;12.65;9.00;;;4.80;99.90;;;;;;5046182;28;20424;-86
2022/12/05 00:23:42;;;;;;;12.07;8.23;;;4.90;99.90;;;;;;5046554;28;20144;-85
2022/12/05 00:26:09;;;;;;;12.73;9.52;;;4.90;99.90;;;;;;5031382;28;20416;-86
2022/12/05 00:28:37;;;;;;;10.30;8.40;;;4.90;99.90;;;;;;5031112;28;20040;-86
2022/12/05 00:31:09;;;;;;;11.60;8.85;;;4.90;99.90;;;;;;5063287;28;20571;-87
2022/12/05 00:33:37;;;;;;;11.45;8.05;;;4.90;99.90;;;;;;5062760;28;20049;-86
2022/12/05 00:36:29;;;;;;;10.85;8.27;;;4.90;99.90;;;;;;5061936;28;20048;-86
2022/12/05 00:38:57;;;;;;;10.50;8.00;;;4.90;99.90;;;;;;5062500;28;20085;-86
2022/12/05 00:41:25;;;;;;;12.90;9.10;;;4.90;99.90;;;;;;5046695;28;20056;-86
2022/12/05 00:43:52;;;;;;;11.80;8.43;;;4.90;99.90;;;;;;5027944;28;20087;-86
2022/12/05 00:46:21;;;;;;;10.88;8.35;;;4.90;99.90;;;;;;5029285;28;20052;-85
2022/12/05 00:48:48;;;;;;;13.05;9.13;;;4.90;99.90;;;;;;5043872;28;20048;-85
2022/12/05 00:51:16;;;;;;;12.75;9.52;;;4.90;99.90;;;;;;5044598;28;20048;-84
2022/12/05 00:53:44;;;;;;;11.43;7.88;;;4.90;99.90;;;;;;5045167;28;20056;-85
2022/12/05 00:56:19;;;;;;;11.48;8.57;;;4.90;99.90;;;;;;5045987;28;20052;-86
2022/12/05 00:58:47;;;;;;;10.93;8.13;;;4.90;99.90;;;;;;5060617;28;20048;-86
2022/12/05 01:01:16;;;;;;;9.30;7.05;;;4.90;99.90;;;;;;5046338;28;20049;-85
2022/12/05 01:03:43;;;;;;;10.90;7.90;;;4.90;99.90;;;;;;5045507;28;20083;-85
2022/12/05 01:06:10;;;;;;;9.52;7.93;;;4.90;99.90;;;;;;5045614;28;20056;-85
2022/12/05 01:08:38;;;;;;;11.23;8.05;;;4.90;99.90;;;;;;5062279;28;20044;-86
2022/12/05 01:11:05;;;;;;;7.95;6.63;;;4.90;99.90;;;;;;5062692;28;20371;-85
2022/12/05 01:13:32;;;;;;;8.98;7.28;;;4.90;99.90;;;;;;5044871;28;20055;-85
2022/12/05 01:15:59;;;;;;;9.68;7.43;;;5.00;99.90;;;;;;5045994;28;20052;-85
2022/12/05 01:18:26;;;;;;;8.70;6.53;;;5.00;99.90;;;;;;5045107;28;20057;-85
2022/12/05 01:20:53;;;;;;;8.38;6.78;;;5.00;99.90;;;;;;5044660;28;20062;-85
2022/12/05 01:23:20;;;;;;;9.50;6.53;;;5.00;99.90;;;;;;5061833;28;20194;-85
2022/12/05 01:25:48;;;;;;;8.52;6.78;;;5.00;99.90;;;;;;5045604;28;20384;-86
2022/12/05 01:28:15;;;;;;;8.90;6.32;;;5.00;99.90;;;;;;5060538;28;20052;-86
2022/12/05 01:30:44;;;;;;;9.95;6.88;;;5.10;99.90;;;;;;5045040;28;20127;-86
2022/12/05 01:33:11;;;;;;;8.27;6.72;;;5.10;99.90;;;;;;5044587;28;20080;-86
2022/12/05 01:35:39;;;;;;;9.43;7.22;;;5.10;99.90;;;;;;5044581;28;20147;-85
2022/12/05 01:38:06;;;;;;;9.65;6.85;;;5.10;99.90;;;;;;5028229;28;20060;-85
2022/12/05 01:40:34;;;;;;;10.27;8.63;;;5.10;99.90;;;;;;5045100;28;20502;-86
2022/12/05 01:43:02;;;;;;;9.77;7.78;;;5.10;99.90;;;;;;5028378;28;20257;-86
2022/12/05 01:45:33;;;;;;;12.13;8.60;;;5.10;99.90;;;;;;5061951;28;20475;-86
2022/12/05 01:48:03;;;;;;;10.35;8.55;;;5.10;99.90;;;;;;5043656;28;20048;-86
2022/12/05 01:50:30;;;;;;;11.85;8.93;;;5.10;99.90;;;;;;5062053;28;20066;-86
2022/12/05 01:52:57;;;;;;;12.10;8.98;;;5.10;99.90;;;;;;5028588;28;20082;-85
2022/12/05 01:55:24;;;;;;;9.88;7.47;;;5.10;99.90;;;;;;5044794;28;20063;-85
2022/12/05 01:57:51;;;;;;;12.65;9.52;;;5.10;99.90;;;;;;5060359;28;20063;-85
2022/12/05 02:00:19;;;;;;;11.02;7.85;;;5.10;99.90;;;;;;5044907;28;20049;-86
2022/12/05 02:02:53;;;;;;;12.82;9.05;;;5.20;99.90;;;;;;5044272;28;20079;-86
2022/12/05 02:05:22;;;;;;;12.95;9.02;;;5.20;99.90;;;;;;5029051;28;20052;-86
2022/12/05 02:07:49;;;;;;;9.52;8.10;;;5.20;99.90;;;;;;5027892;28;20053;-85
2022/12/05 02:10:16;;;;;;;10.95;8.23;;;5.20;99.90;;;;;;5045601;28;20056;-86
2022/12/05 02:12:43;;;;;;;11.50;8.77;;;5.20;99.90;;;;;;5060088;28;20044;-85
2022/12/05 02:15:09;;;;;;;10.50;8.77;;;5.20;99.90;;;;;;5028331;28;20150;-87
2022/12/05 02:17:41;;;;;;;9.02;7.57;;;5.20;99.90;;;;;;5060555;28;20048;-85
2022/12/05 02:20:34;;;;;;;11.23;8.02;;;5.20;99.90;;;;;;5062074;28;20049;-85
2022/12/05 02:23:29;;;;;;;8.43;6.85;;;5.20;99.90;;;;;;5057369;28;20068;-85
2022/12/05 02:26:18;;;;;;;8.02;6.78;;;5.30;99.90;;;;;;5062289;28;20062;-86
2022/12/05 02:29:13;;;;;;;8.43;6.63;;;5.30;99.90;;;;;;5044060;28;20094;-85
2022/12/05 02:31:42;;;;;;;;;;;5.30;99.90;;;;;;5046776;28;20052;-84
2022/12/05 02:34:44;;;;;;;8.55;6.55;;;5.30;99.90;;;;;;5048917;28;19925;-85
2022/12/05 02:37:20;;;;;;;9.25;7.85;;;5.30;99.90;;;;;;5059950;28;20041;-84
2022/12/05 02:39:56;;;;;;;9.52;8.00;;;5.30;99.90;;;;;;5062294;28;20044;-85
2022/12/05 02:42:28;;;;;;;8.50;7.50;;;5.30;99.90;;;;;;5030791;28;20053;-83
2022/12/05 02:44:58;;;;;;;9.82;7.90;;;5.30;99.90;;;;;;5047087;28;20063;-84
2022/12/05 02:47:26;;;;;;;9.73;7.70;;;5.30;99.90;;;;;;5030865;28;20049;-83
2022/12/05 02:49:53;;;;;;;9.68;7.55;;;5.40;99.90;;;;;;5046391;28;20056;-85
2022/12/05 02:52:20;;;;;;;9.65;7.80;;;5.40;99.90;;;;;;5030887;28;20072;-85
2022/12/05 02:54:48;;;;;;;8.93;6.93;;;5.40;99.90;;;;;;5063329;28;20068;-85
2022/12/05 02:57:15;;;;;;;9.80;7.70;;;5.40;99.90;;;;;;5063305;28;20064;-85
2022/12/05 02:59:42;;;;;;;8.57;7.22;;;5.40;99.90;;;;;;5029519;28;20049;-84
2022/12/05 03:02:26;;;;;;;9.38;7.55;;;5.40;99.90;;;;;;5034416;28;20048;-85
2022/12/05 03:04:57;;;;;;;8.55;6.93;;;5.40;99.90;;;;;;5035002;28;20057;-85
2022/12/05 03:07:24;;;;;;;8.13;6.43;;;5.40;99.90;;;;;;5034126;28;20123;-84
2022/12/05 03:09:57;;;;;;;9.23;6.72;;;5.40;99.90;;;;;;5049955;28;20041;-85
2022/12/05 03:12:25;;;;;;;;;;;5.40;99.90;;;;;;5050609;28;20064;-84
2022/12/05 03:15:15;;;;;;;10.45;7.45;;;5.40;99.90;;;;;;5050537;28;19955;-85
2022/12/05 03:17:45;;;;;;;9.93;7.65;;;5.40;99.90;;;;;;5050175;28;20048;-85
2022/12/05 03:20:42;;;;;;;8.02;6.43;;;5.40;99.90;;;;;;5067517;28;20135;-83
2022/12/05 03:23:22;;;;;;;9.48;6.90;;;5.40;99.90;;;;;;5066257;28;20048;-84
2022/12/05 03:25:49;;;;;;;8.55;6.78;;;5.40;99.90;;;;;;5050485;28;20049;-85
2022/12/05 03:28:52;;;;;;;9.55;7.05;;;5.40;99.90;;;;;;5067272;28;20048;-84
2022/12/05 03:31:25;;;;;;;8.65;7.35;;;5.40;99.90;;;;;;5048291;28;20056;-85
2022/12/05 03:33:53;;;;;;;8.48;6.65;;;5.40;99.90;;;;;;5046217;28;20056;-85
2022/12/05 03:36:22;;;;;;;8.25;6.72;;;5.40;99.90;;;;;;5030093;28;20691;-85
2022/12/05 03:38:52;;;;;;;8.82;7.13;;;5.40;99.90;;;;;;5034274;28;20467;-85
2022/12/05 03:41:22;;;;;;;8.30;6.80;;;5.40;99.90;;;;;;5066967;28;20079;-86
2022/12/05 03:43:57;;;;;;;8.50;7.13;;;5.40;99.90;;;;;;5049760;28;20239;-85
2022/12/05 03:46:29;;;;;;;10.32;7.03;;;5.40;99.90;;;;;;5067086;28;20052;-86
2022/12/05 03:49:21;;;;;;;8.57;6.47;;;5.40;99.90;;;;;;5034289;28;20078;-85
2022/12/05 03:51:55;;;;;;;9.13;6.97;;;5.40;99.90;;;;;;5067892;28;20379;-84
2022/12/05 03:54:26;;;;;;;;;;;5.40;99.90;;;;;;5050206;28;20475;-85
2022/12/05 03:57:01;;;;;;;9.27;6.38;;;5.40;99.90;;;;;;5050293;28;19921;-85
2022/12/05 03:59:37;;;;;;;9.45;7.40;;;5.40;99.90;;;;;;5049730;28;20055;-84
2022/12/05 04:02:11;;;;;;;7.45;6.20;;;5.40;99.90;;;;;;5050052;28;20685;-84
2022/12/05 04:04:54;;;;;;;9.38;6.40;;;5.40;99.90;;;;;;5065398;28;20098;-85
2022/12/05 04:07:20;;;;;;;8.95;6.70;;;5.40;99.90;;;;;;5049452;28;20609;-85
2022/12/05 04:09:59;;;;;;;7.25;5.43;;;5.40;99.90;;;;;;5032708;28;20506;-85
2022/12/05 04:12:28;;;;;;;9.23;6.80;;;5.50;99.90;;;;;;5032399;28;20049;-84
2022/12/05 04:15:03;;;;;;;8.43;6.22;;;5.40;99.90;;;;;;5066537;28;20883;-84
2022/12/05 04:17:46;;;;;;;7.60;6.00;;;5.40;99.90;;;;;;5066136;28;20052;-84
2022/12/05 04:23:19;;;;;;;9.25;5.97;;;5.50;99.90;;;;;;5055697;28;20051;-84
2022/12/05 04:26:07;;;;;;;7.50;5.63;;;5.50;99.90;;;;;;5032386;28;20060;-84
2022/12/05 04:29:03;;;;;;;6.40;5.70;;;5.50;99.90;;;;;;5064806;28;20135;-84
2022/12/05 04:31:36;;;;;;;6.55;4.80;;;5.50;99.90;;;;;;5052910;28;20045;-83
2022/12/05 04:34:05;;;;;;;7.00;5.50;;;5.60;99.90;;;;;;5048534;28;20045;-85
2022/12/05 04:36:51;;;;;;;8.02;5.95;;;5.50;99.90;;;;;;5065073;28;20044;-85
2022/12/05 04:39:23;;;;;;;8.85;6.72;;;5.50;99.90;;;;;;5063978;28;20076;-84
2022/12/05 04:41:52;;;;;;;8.45;6.85;;;5.50;99.90;;;;;;5032258;28;20128;-83
2022/12/05 04:44:22;;;;;;;9.20;7.03;;;5.50;99.90;;;;;;5028250;28;20060;-84
2022/12/05 04:46:49;;;;;;;7.38;5.88;;;5.50;99.90;;;;;;5044759;28;20053;-85
2022/12/05 04:49:26;;;;;;;8.23;6.25;;;5.50;99.90;;;;;;5018572;28;20621;-85
2022/12/05 04:51:58;;;;;;;6.88;6.13;;;5.60;99.90;;;;;;5028179;28;20053;-85
2022/12/05 04:54:31;;;;;;;6.65;5.90;;;5.60;99.90;;;;;;5062758;28;20116;-85
2022/12/05 04:57:13;;;;;;;7.00;5.47;;;5.60;99.90;;;;;;5044951;28;20060;-85
2022/12/05 04:59:40;;;;;;;7.70;5.82;;;5.60;99.90;;;;;;5060185;28;20048;-85
2022/12/05 05:02:09;;;;;;;7.75;5.90;;;5.60;99.90;;;;;;5048006;28;20682;-84
2022/12/05 05:04:44;;;;;;;6.78;5.68;;;5.60;99.90;;;;;;5047187;28;20080;-84
2022/12/05 05:07:11;;;;;;;6.43;5.40;;;5.60;99.90;;;;;;5064732;28;20067;-86
2022/12/05 05:09:38;;;;;;;8.18;5.90;;;5.70;99.90;;;;;;5064577;28;20572;-85
2022/12/05 05:12:06;;;;;;;6.88;5.50;;;5.70;99.90;;;;;;5031119;28;20072;-83
2022/12/05 05:14:33;;;;;;;6.15;5.43;;;5.70;99.90;;;;;;5047462;28;20051;-84
2022/12/05 05:17:00;;;;;;;6.78;5.60;;;5.70;99.90;;;;;;5048083;28;20052;-84
2022/12/05 05:19:27;;;;;;;7.68;5.30;;;5.70;99.90;;;;;;5063452;28;20456;-85
2022/12/05 05:21:54;;;;;;;6.75;5.22;;;5.80;99.90;;;;;;5064456;28;20488;-84
2022/12/05 05:24:22;;;;;;;8.98;6.55;;;5.80;99.90;;;;;;5063783;28;20478;-85
2022/12/05 05:26:49;;;;;;;7.82;6.00;;;5.80;99.90;;;;;;5031551;28;20049;-85
2022/12/05 05:29:22;;;;;;;7.38;5.95;;;5.80;99.90;;;;;;5043790;28;20053;-84
2022/12/05 05:31:49;;;;;;;9.68;6.57;;;5.80;99.90;;;;;;5030254;28;20845;-84
2022/12/05 05:34:16;;;;;;;7.90;6.13;;;5.80;99.90;;;;;;5062920;28;20511;-84
2022/12/05 05:36:43;;;;;;;7.22;5.43;;;5.80;99.90;;;;;;5046850;28;20083;-83
2022/12/05 05:39:12;;;;;;;7.47;5.57;;;5.80;99.90;;;;;;5046777;28;20053;-85
2022/12/05 05:41:39;;;;;;;7.55;5.00;;;5.80;99.90;;;;;;5064048;28;20071;-84
2022/12/05 05:44:06;;;;;;;6.88;5.60;;;5.90;99.90;;;;;;5049557;28;20754;-84
2022/12/05 05:46:34;;;;;;;6.75;5.55;;;5.90;99.90;;;;;;5027314;28;20064;-83
2022/12/05 05:49:01;;;;;;;6.25;5.20;;;5.90;99.90;;;;;;5052037;28;20098;-83
2022/12/05 05:51:29;;;;;;;7.68;5.82;;;5.90;99.90;;;;;;5030967;28;20102;-83
2022/12/05 05:53:56;;;;;;;7.03;5.28;;;5.90;99.90;;;;;;5059518;28;20056;-82
2022/12/05 05:56:23;;;;;;;9.23;6.95;;;5.90;99.90;;;;;;5061802;28;20037;-83
2022/12/05 05:59:08;;;;;;;8.98;6.10;;;5.90;99.90;;;;;;5045047;28;20499;-83
2022/12/05 06:01:34;;;;;;;6.32;5.45;;;5.90;99.90;;;;;;5043928;28;20578;-84
2022/12/05 06:04:01;;;;;;;6.97;5.50;;;5.90;99.90;;;;;;5040776;28;20087;-83
2022/12/05 06:06:28;;;;;;;7.68;5.68;;;5.90;99.90;;;;;;5043033;28;20051;-82
2022/12/05 06:08:55;;;;;;;8.20;6.80;;;5.90;99.90;;;;;;5020984;28;20053;-83
2022/12/05 06:11:24;;;;;;;7.43;5.95;;;5.90;99.90;;;;;;5040833;28;20080;-82
2022/12/05 06:13:53;;;;;;;7.55;5.57;;;5.90;99.90;;;;;;5052502;28;20637;-81
2022/12/05 06:16:21;;;;;;;6.43;5.10;;;6.00;99.90;;;;;;5046010;28;20056;-83
2022/12/05 06:18:48;;;;;;;6.97;5.40;;;6.00;99.90;;;;;;5041516;28;20049;-82
2022/12/05 06:21:15;;;;;;;5.45;4.53;;;6.00;99.90;;;;;;5025478;28;20044;-81
2022/12/05 06:23:42;;;;;;;7.35;5.28;;;6.00;99.90;;;;;;5049399;28;20110;-82
2022/12/05 06:26:14;;;;;;;7.80;6.43;;;6.00;99.90;;;;;;5061052;28;20071;-83
2022/12/05 06:28:41;;;;;;;6.65;4.95;;;6.00;99.90;;;;;;5041146;28;20697;-81
2022/12/05 06:31:13;;;;;;;6.05;4.22;;;6.00;99.90;;;;;;5039830;28;20057;-82
2022/12/05 06:33:40;;;;;;;5.63;4.20;;;6.00;99.90;;;;;;5046913;28;20452;-82
2022/12/05 06:36:09;;;;;;;5.32;4.45;;;6.10;99.90;;;;;;5053741;28;20053;-81
2022/12/05 06:38:36;;;;;;;4.53;3.85;;;6.10;99.90;;;;;;5040573;28;20052;-81
2022/12/05 06:41:18;;;;;;;5.18;3.63;;;6.10;99.90;;;;;;5025976;28;20060;-80
2022/12/05 06:43:45;;;;;;;5.65;3.80;;;6.10;99.90;;;;;;5057455;28;20052;-80
2022/12/05 06:46:12;;;;;;;5.32;4.07;;;6.20;99.90;;;;;;5061482;28;21117;-80
2022/12/05 06:48:40;;;;;;;4.57;3.85;;;6.20;99.90;;;;;;5040427;28;20059;-81
2022/12/05 06:51:08;;;;;;;4.47;3.53;;;6.20;99.90;;;;;;5038573;28;20074;-81
2022/12/05 06:53:35;;;;;;;4.78;3.55;;;6.20;99.90;;;;;;5046853;28;20059;-81
2022/12/05 06:56:04;;;;;;;4.10;3.08;;;6.20;99.90;;;;;;5055024;28;20428;-81
2022/12/05 06:58:30;;;;;;;4.88;3.78;;;6.20;99.90;;;;;;5048626;28;20055;-81
2022/12/05 07:03:43;;;;;;;5.68;4.38;;;6.20;99.90;;;;;;5058663;28;20155;-80
2022/12/05 07:06:09;;;;;;;5.13;3.90;;;6.20;99.90;;;;;;5043035;28;20106;-80
2022/12/05 07:08:37;;;;;;;6.43;4.38;;;6.20;99.90;;;;;;5031197;28;20044;-80
2022/12/05 07:11:04;;;;;;;7.07;5.43;;;6.20;99.90;;;;;;5046611;28;20925;-80
2022/12/05 07:13:31;;;;;;;7.45;5.68;;;6.20;99.90;;;;;;5055346;28;20051;-80
2022/12/05 07:15:58;;;;;;;6.60;5.72;;;6.30;99.90;;;;;;5045909;28;20047;-81
2022/12/05 07:18:25;;;;;;;6.82;5.45;;;6.30;99.90;;;;;;5045327;28;20056;-80
2022/12/05 07:20:59;;;;;;;9.48;7.13;;;6.30;99.90;;;;;;5027629;28;20059;-81
2022/12/05 07:23:38;;;;;;;6.85;5.90;;;6.20;99.90;;;;;;5046383;28;20075;-80
2022/12/05 07:26:05;;;;;;;8.05;6.05;;;6.30;99.90;;;;;;5044078;28;20064;-80
2022/12/05 07:28:32;;;;;;;8.75;6.85;;;6.20;99.90;;;;;;5059802;28;20053;-80
2022/12/05 07:31:07;;;;;;;8.75;7.50;;;6.20;99.90;;;;;;5045094;28;20110;-80
2022/12/05 07:33:34;;;;;;;9.32;7.60;;;6.20;99.90;;;;;;5060859;28;20416;-80
2022/12/05 07:36:02;;;;;;;12.15;7.70;;;6.20;99.90;;;;;;5044745;28;20044;-80
2022/12/05 07:38:28;;;;;;;8.88;7.38;;;6.20;99.90;;;;;;5062086;28;20044;-80
2022/12/05 07:40:55;;;;;;;8.93;7.00;;;6.20;99.90;;;;;;5061984;28;20066;-80
2022/12/05 07:43:22;;;;;;;7.60;6.13;;;6.20;99.90;;;;;;5044355;28;20057;-80
2022/12/05 07:45:49;;;;;;;7.63;6.25;;;6.20;99.90;;;;;;5044997;28;20216;-80
2022/12/05 07:48:16;;;;;;;8.90;5.93;;;6.20;99.90;;;;;;5061998;28;20098;-81
2022/12/05 07:50:44;;;;;;;7.55;6.05;;;6.20;99.90;;;;;;5029907;28;20140;-79
2022/12/05 07:53:11;;;;;;;8.52;5.80;;;6.20;99.90;;;;;;5045065;28;20099;-80
2022/12/05 07:55:38;;;;;;;9.60;6.75;;;6.10;99.90;;;;;;5063454;28;20488;-81
2022/12/05 07:58:05;;;;;;;9.40;6.40;;;6.10;99.90;;;;;;5044743;28;20695;-80
2022/12/05 08:00:32;;;;;;;8.25;6.28;;;6.10;99.90;;;;;;5063682;28;20071;-80
2022/12/05 08:03:01;;;;;;;9.68;6.90;;;6.10;99.90;;;;;;5060824;28;20268;-80
2022/12/05 08:05:28;;;;;;;8.77;6.95;;;6.10;99.90;;;;;;5044748;28;20044;-81
2022/12/05 08:07:55;;;;;;;11.20;6.88;;;6.10;99.90;;;;;;5060479;28;20047;-80
2022/12/05 08:10:22;;;;;;;8.02;6.38;;;6.10;99.90;;;;;;5041613;28;20132;-80
2022/12/05 08:12:49;;;;;;;6.45;5.47;;;6.10;99.90;;;;;;5056923;28;20059;-79
2022/12/05 08:15:15;;;;;;;7.15;5.80;;;6.10;99.90;;;;;;5041077;28;20471;-79
2022/12/05 08:17:43;;;;;;;7.03;6.25;;;6.00;99.90;;;;;;5024626;28;20052;-79
2022/12/05 08:20:10;;;;;;;9.10;7.43;;;6.00;99.90;;;;;;5057849;28;20048;-79
2022/12/05 08:22:37;;;;;;;8.43;5.93;;;5.90;99.90;;;;;;5044337;28;20080;-79
2022/12/05 08:25:04;;;;;;;6.60;5.57;;;5.80;99.90;;;;;;5045269;28;20131;-79
2022/12/05 08:27:30;;;;;;;9.02;6.15;;;5.90;99.90;;;;;;5043495;28;20040;-78
2022/12/05 08:29:57;;;;;;;8.82;6.57;;;5.90;99.90;;;;;;5028444;28;20515;-79
2022/12/05 08:32:24;;;;;;;8.38;6.75;;;5.90;99.90;;;;;;5044869;28;20259;-79
2022/12/05 08:34:51;;;;;;;7.18;5.90;;;6.00;99.90;;;;;;5060689;28;20052;-79
2022/12/05 08:37:18;;;;;;;8.40;6.30;;;6.10;99.90;;;;;;5028009;28;20523;-79
2022/12/05 08:39:44;;;;;;;7.95;5.78;;;6.10;99.90;;;;;;5028307;28;20086;-79
2022/12/05 08:42:11;;;;;;;7.50;5.85;;;6.10;99.90;;;;;;5028001;28;20050;-79
2022/12/05 08:44:38;;;;;;;9.23;6.28;;;6.20;99.90;;;;;;5060327;28;20190;-79
2022/12/05 08:47:05;;;;;;;6.55;5.45;;;6.20;99.90;;;;;;5028588;28;20522;-78
2022/12/05 08:49:32;;;;;;;7.35;5.13;;;6.20;99.90;;;;;;5059795;28;20044;-79
2022/12/05 08:51:59;;;;;;;7.03;5.50;;;6.30;99.90;;;;;;5061198;28;20055;-78
2022/12/05 08:54:26;;;;;;;8.90;6.20;;;6.30;99.90;;;;;;5044894;28;20053;-78
2022/12/05 08:56:53;;;;;;;9.30;7.57;;;6.30;99.90;;;;;;5060797;28;20051;-78
2022/12/05 08:59:20;;;;;;;7.40;5.90;;;6.30;99.90;;;;;;5061005;28;20052;-78
2022/12/05 09:01:49;;;;;;;8.00;5.55;;;6.30;99.90;;;;;;5028376;28;20059;-78
2022/12/05 09:04:15;;;;;;;7.35;6.25;;;6.40;99.90;;;;;;5026750;28;20125;-78
2022/12/05 09:06:42;;;;;;;9.05;7.50;;;6.40;99.90;;;;;;5044450;28;20055;-78
2022/12/05 09:09:10;;;;;;;10.52;7.10;;;6.40;99.90;;;;;;5060772;28;20518;-78
2022/12/05 09:11:40;;;;;;;7.70;6.63;;;6.40;99.90;;;;;;5044687;28;20051;-78
2022/12/05 09:14:06;;;;;;;8.48;6.35;;;6.40;99.90;;;;;;5059154;28;20076;-78
2022/12/05 09:16:34;;;;;;;8.18;5.60;;;6.40;99.90;;;;;;5044553;28;20437;-78
2022/12/05 09:19:04;;;;;;;7.35;6.03;;;6.50;99.90;;;;;;5044074;28;20427;-78
2022/12/05 09:21:31;;;;;;;10.70;7.10;;;6.50;99.90;;;;;;5027756;28;20059;-78
2022/12/05 09:23:58;;;;;;;8.02;6.18;;;6.60;99.90;;;;;;5043792;28;20371;-78
2022/12/05 09:26:26;;;;;;;8.38;5.72;;;6.60;99.90;;;;;;5044445;28;20491;-78
2022/12/05 09:28:53;;;;;;;8.55;5.90;;;6.60;99.90;;;;;;5042764;28;20051;-78
2022/12/05 09:31:21;;;;;;;8.25;6.22;;;6.60;99.90;;;;;;5044275;28;20045;-78
2022/12/05 09:33:49;;;;;;;8.60;5.85;;;6.70;99.90;;;;;;5059902;28;20475;-78
2022/12/05 09:36:17;;;;;;;8.73;5.97;;;6.70;99.90;;;;;;5043134;28;20059;-78
2022/12/05 09:38:44;;;;;;;7.80;6.53;;;6.80;99.90;;;;;;5043705;28;20146;-78
2022/12/05 09:44:28;;;;;;;7.15;6.05;;;6.80;99.90;;;;;;5061125;28;20210;-78
2022/12/05 09:47:14;;;;;;;7.38;5.78;;;6.90;99.90;;;;;;5060717;28;20189;-78
2022/12/05 09:49:53;;;;;;;7.95;5.93;;;6.90;99.90;;;;;;5060072;28;20503;-78
2022/12/05 09:52:34;;;;;;;8.05;5.63;;;7.00;99.90;;;;;;5045013;28;20051;-78
2022/12/05 09:55:19;;;;;;;8.25;5.90;;;7.00;99.90;;;;;;5043791;28;20052;-78
2022/12/05 09:57:50;;;;;;;7.80;5.97;;;7.10;99.90;;;;;;5056424;28;20538;-78
2022/12/05 10:00:17;;;;;;;6.05;4.95;;;7.10;99.90;;;;;;5027221;28;20053;-78
2022/12/05 10:03:10;;;;;;;5.70;4.85;;;7.10;99.90;;;;;;5026323;28;20060;-78
2022/12/05 10:05:50;;;;;;;9.43;7.13;;;7.20;99.90;;;;;;5059857;28;20074;-78
2022/12/05 10:08:25;;;;;;;7.53;5.13;;;7.20;99.90;;;;;;5043527;28;20140;-78
2022/12/05 10:11:02;;;;;;;8.25;5.30;;;7.20;99.90;;;;;;5047781;28;20059;-78
2022/12/05 10:13:40;;;;;;;8.18;6.55;;;7.20;99.90;;;;;;5046503;28;20131;-78
2022/12/05 10:16:17;;;;;;;6.78;5.07;;;7.20;99.90;;;;;;5063988;28;20420;-78
2022/12/05 10:18:56;;;;;;;6.45;5.50;;;7.20;99.90;;;;;;5047415;28;20882;-79
2022/12/05 10:21:57;;;;;;;6.78;5.60;;;7.20;99.90;;;;;;5047575;28;20050;-78
2022/12/05 10:24:40;;;;;;;7.43;5.53;;;7.20;99.90;;;;;;5041284;28;20088;-77
2022/12/05 10:27:10;;;;;;;7.15;5.97;;;7.20;99.90;;;;;;5047414;28;20755;-78
2022/12/05 10:30:01;;;;;;;7.45;5.68;;;7.30;99.90;;;;;;5029995;28;20063;-78
2022/12/05 10:32:35;;;;;;;8.27;6.47;;;7.30;99.90;;;;;;5033032;28;20148;-78
2022/12/05 10:35:22;;;;;;;6.95;5.90;;;7.30;99.90;;;;;;5030916;28;20372;-78
2022/12/05 10:37:53;;;;;;;7.05;5.90;;;7.40;99.90;;;;;;5063271;28;20144;-79
2022/12/05 10:40:20;;;;;;;7.70;6.30;;;7.40;99.90;;;;;;5030920;28;20071;-78
2022/12/05 10:42:47;;;;;;;7.25;6.13;;;7.40;99.90;;;;;;5045787;28;20389;-78
2022/12/05 10:45:21;;;;;;;6.68;5.72;;;7.40;99.90;;;;;;5047604;28;20051;-79
2022/12/05 10:47:49;;;;;;;8.85;5.88;;;7.40;99.90;;;;;;5046603;28;20510;-79
2022/12/05 10:50:31;;;;;;;8.55;6.32;;;7.40;99.90;;;;;;5030102;28;20064;-78
2022/12/05 10:52:59;;;;;;;7.43;6.10;;;7.50;99.90;;;;;;5046969;28;20178;-79
2022/12/05 10:55:50;;;;;;;6.95;5.15;;;7.50;99.90;;;;;;5030346;28;20053;-79
2022/12/05 10:58:36;;;;;;;7.00;5.72;;;7.60;99.90;;;;;;5063525;28;20061;-79
2022/12/05 11:01:08;;;;;;;6.65;5.25;;;7.60;99.90;;;;;;5047145;28;20055;-78
2022/12/05 11:03:37;;;;;;;6.72;5.53;;;7.70;99.90;;;;;;5029890;28;20094;-78
2022/12/05 11:06:25;;;;;;;7.18;5.57;;;7.70;99.90;;;;;;5046407;28;20449;-78
2022/12/05 11:09:22;;;;;;;8.27;5.90;;;7.80;99.90;;;;;;5062451;28;20481;-79
2022/12/05 11:12:08;;;;;;;6.35;5.50;;;7.70;99.90;;;;;;5032502;28;20059;-78
2022/12/05 11:14:35;;;;;;;6.07;4.88;;;7.80;99.90;;;;;;5062139;28;20732;-78
2022/12/05 11:17:02;;;;;;;9.88;5.65;;;7.90;99.90;;;;;;5046531;28;20098;-78
2022/12/05 11:19:30;;;;;;;6.38;5.72;;;7.80;99.90;;;;;;5045223;28;20048;-78
2022/12/05 11:21:57;;;;;;;9.15;5.88;;;7.80;99.90;;;;;;5062062;28;20476;-78
2022/12/05 11:24:33;;;;;;;7.60;5.53;;;7.80;99.90;;;;;;5029875;28;20052;-78
2022/12/05 11:27:22;;;;;;;6.78;4.47;;;7.70;99.90;;;;;;5029592;28;20049;-79
2022/12/05 11:30:03;;;;;;;8.77;5.80;;;7.70;99.90;;;;;;5045961;28;20127;-78
2022/12/05 11:32:31;;;;;;;8.00;5.93;;;7.70;99.90;;;;;;5046536;28;20681;-78
2022/12/05 11:35:10;;;;;;;6.43;5.55;;;7.70;99.90;;;;;;5046412;28;20477;-78
2022/12/05 11:38:01;;;;;;;5.88;4.95;;;7.70;99.90;;;;;;5062180;28;20067;-78
2022/12/05 11:40:40;;;;;;;5.88;4.50;;;7.70;99.90;;;;;;5062390;28;20049;-78
2022/12/05 11:43:25;;;;;;;6.80;5.70;;;7.70;99.90;;;;;;5061197;28;20086;-78
2022/12/05 11:46:21;;;;;;;6.28;5.57;;;7.80;99.90;;;;;;5062931;28;20063;-78
2022/12/05 11:49:04;;;;;;;7.47;5.20;;;7.70;99.90;;;;;;5057285;28;20044;-78
2022/12/05 11:52:05;;;;;;;6.72;5.47;;;7.70;99.90;;;;;;5063695;28;20048;-78
2022/12/05 11:54:54;;;;;;;9.85;7.68;;;7.70;99.90;;;;;;5061981;28;20071;-78
2022/12/05 11:57:44;;;;;;;8.93;6.57;;;7.60;99.90;;;;;;5062948;28;20152;-78
2022/12/05 12:00:23;;;;;;;10.15;6.95;;;7.60;99.90;;;;;;5062441;28;20068;-78
2022/12/05 12:03:02;;;;;;;6.60;5.38;;;7.60;99.90;;;;;;5045550;28;20110;-78
2022/12/05 12:06:07;;;;;;;8.38;6.68;;;7.80;99.90;;;;;;5062409;28;20052;-78
2022/12/05 12:09:00;;;;;;;8.05;5.65;;;7.90;99.90;;;;;;5062218;28;20048;-78
2022/12/05 12:11:31;;;;;;;8.02;6.57;;;8.10;99.90;;;;;;5062841;28;20503;-78
2022/12/05 12:14:07;;;;;;;7.28;5.38;;;8.20;99.90;;;;;;5027965;28;20301;-78
2022/12/05 12:16:55;;;;;;;9.40;7.60;;;8.20;99.90;;;;;;5064143;28;20052;-78
2022/12/05 12:19:48;;;;;;;8.38;6.10;;;8.20;99.90;;;;;;5060256;28;20132;-77
2022/12/05 12:22:20;;;;;;;7.68;6.35;;;8.20;99.90;;;;;;5060146;28;20052;-77
2022/12/05 12:24:56;;;;;;;7.93;6.55;;;8.40;99.90;;;;;;5053325;28;20045;-78
2022/12/05 12:27:41;;;;;;;8.48;6.70;;;8.40;99.90;;;;;;5073944;28;20044;-79
2022/12/05 12:30:21;;;;;;;8.55;6.05;;;8.60;99.90;;;;;;5045108;28;20048;-78
2022/12/05 12:33:07;;;;;;;9.02;6.63;;;8.60;99.90;;;;;;5036005;28;20602;-78
2022/12/05 12:35:49;;;;;;;7.07;5.82;;;8.70;99.90;;;;;;5065119;28;20354;-78
2022/12/05 12:38:25;;;;;;;7.18;6.00;;;8.70;99.90;;;;;;5061601;28;20056;-78
2022/12/05 12:40:57;;;;;;;9.57;7.03;;;8.70;99.90;;;;;;5058181;28;20044;-78
2022/12/05 12:43:35;;;;;;;10.25;6.30;;;8.60;99.90;;;;;;5038928;28;20063;-78
2022/12/05 12:46:28;;;;;;;9.35;6.20;;;8.50;99.90;;;;;;5052422;28;20048;-78
2022/12/05 12:49:34;;;;;;;7.30;5.25;;;8.50;99.90;;;;;;5054370;28;20516;-78
2022/12/05 12:52:02;;;;;;;7.13;5.93;;;8.50;99.90;;;;;;5049472;28;20051;-78
2022/12/05 12:54:45;;;;;;;7.78;5.78;;;8.40;99.90;;;;;;5016194;28;20056;-78
2022/12/05 12:57:48;;;;;;;7.90;6.07;;;8.40;99.90;;;;;;5052259;28;20063;-78
2022/12/05 13:00:42;;;;;;;6.63;5.45;;;8.30;99.90;;;;;;5031968;28;20449;-77
2022/12/05 13:03:16;;;;;;;5.65;5.07;;;8.20;99.90;;;;;;5055364;28;20048;-78
2022/12/05 13:05:49;;;;;;;;;;;8.20;99.90;;;;;;5063092;28;20135;-78
2022/12/05 13:08:43;;;;;;;7.65;5.75;;;8.20;99.90;;;;;;5045527;28;20608;-77
2022/12/05 13:11:11;;;;;;;6.55;4.88;;;8.20;99.90;;;;;;5045332;28;20164;-78
2022/12/05 13:13:58;;;;;;;5.43;4.68;;;8.30;99.90;;;;;;5028276;28;20057;-78
2022/12/05 13:16:31;;;;;;;5.60;4.00;;;8.40;99.90;;;;;;5051741;28;20052;-77
2022/12/05 13:18:58;;;;;;;6.30;5.07;;;8.50;99.90;;;;;;5056565;28;20092;-78
2022/12/05 13:21:25;;;;;;;6.05;4.47;;;8.50;99.90;;;;;;5023828;28;20504;-78
2022/12/05 13:23:54;;;;;;;5.90;4.80;;;8.50;99.90;;;;;;5039925;28;20048;-78
2022/12/05 13:26:22;;;;;;;6.28;4.88;;;8.50;99.90;;;;;;5040926;28;20415;-78
2022/12/05 13:28:52;;;;;;;5.78;4.43;;;8.70;99.90;;;;;;5040083;28;20537;-78
2022/12/05 13:31:19;;;;;;;6.30;4.78;;;9.20;99.90;;;;;;5040928;28;20053;-78
2022/12/05 13:33:47;;;;;;;4.95;3.90;;;9.40;99.90;;;;;;5056450;28;20102;-79